createdAt,value
2023-10-12T00:03:23.123Z,99211.97
2023-10-12T00:08:34.689Z,99206.34
2023-10-12T00:13:42.797Z,99189.66
2023-10-12T00:18:47.043Z,99182.13
2023-10-12T00:23:48.919Z,99195.25
2023-10-12T00:28:52.513Z,99181.53
2023-10-12T00:33:54.566Z,99182.78
2023-10-12T00:38:58.303Z,68747.22
2023-10-12T00:44:13.966Z,99178.19
2023-10-12T00:49:23.688Z,99164.91
2023-10-12T00:54:39.610Z,99152.00
2023-10-12T00:59:44.656Z,99152.19
2023-10-12T01:04:49.582Z,99153.84
2023-10-12T01:10:04.320Z,99145.25
2023-10-12T01:15:12.157Z,99152.75
2023-10-12T01:20:26.963Z,99142.94
2023-10-12T01:25:30.824Z,99144.88
2023-10-12T01:30:37.408Z,99148.06
2023-10-12T01:35:41.036Z,99150.81
2023-10-12T01:40:51.626Z,99148.59
2023-10-12T01:46:01.006Z,99138.72
2023-10-12T01:51:15.891Z,99152.44
2023-10-12T01:56:17.875Z,99157.84
2023-10-12T02:01:20.599Z,99154.38
2023-10-12T02:06:24.719Z,99154.19
2023-10-12T02:11:27.574Z,99153.34
2023-10-12T02:16:39.538Z,99159.50
2023-10-12T02:21:42.496Z,99156.09
2023-10-12T02:26:53.815Z,99156.84
2023-10-12T02:31:55.705Z,99159.69
2023-10-12T02:37:12.126Z,99158.06
2023-10-12T02:42:16.599Z,99154.28
2023-10-12T02:47:23.769Z,99164.09
2023-10-12T02:52:26.631Z,99155.59
2023-10-12T02:57:32.468Z,99154.56
2023-10-12T03:02:34.579Z,99151.59
2023-10-12T03:07:39.681Z,99151.69
2023-10-12T03:12:45.107Z,99149.34
2023-10-12T03:17:54.739Z,99137.78
2023-10-12T03:23:01.260Z,99147.19
2023-10-12T03:28:12.925Z,99147.44
2023-10-12T03:33:17.022Z,99143.38
2023-10-12T03:38:20.520Z,99156.34
2023-10-12T03:43:28.250Z,99170.56
2023-10-12T03:48:48.500Z,99168.97
2023-10-12T03:54:06.144Z,99167.44
2023-10-12T03:59:08.463Z,99169.19
2023-10-12T04:04:20.852Z,99171.47
2023-10-12T04:09:33.518Z,99158.47
2023-10-12T04:14:38.096Z,99160.09
2023-10-12T04:19:46.044Z,99157.13
2023-10-12T04:24:49.370Z,99149.97
2023-10-12T04:29:58.493Z,99152.16
2023-10-12T04:35:02.333Z,99153.31
2023-10-12T04:40:26.284Z,99150.72
2023-10-12T04:45:31.372Z,99139.94
2023-10-12T04:50:53.483Z,99153.69
2023-10-12T04:56:01.215Z,99154.41
2023-10-12T05:01:31.709Z,99129.88
2023-10-12T05:06:36.963Z,99135.28
2023-10-12T05:11:39.929Z,99157.16
2023-10-12T05:16:44.569Z,99157.84
2023-10-12T05:21:46.447Z,99172.56
2023-10-12T05:26:54.564Z,99186.47
2023-10-12T05:32:08.135Z,99177.69
2023-10-12T05:37:18.062Z,99181.69
2023-10-12T05:42:23.926Z,99176.91
2023-10-12T05:47:31.089Z,99170.97
2023-10-12T05:52:36.170Z,99175.25
2023-10-12T05:57:38.346Z,99178.19
2023-10-12T06:02:40.252Z,99192.78
2023-10-12T06:07:44.877Z,99197.97
2023-10-12T06:12:47.927Z,99197.28
2023-10-12T06:17:52.464Z,99201.50
2023-10-12T06:22:56.244Z,99211.19
2023-10-12T06:27:58.145Z,99209.34
2023-10-12T06:33:01.181Z,99210.94
2023-10-12T06:38:23.957Z,99216.28
2023-10-12T06:43:28.571Z,99213.06
2023-10-12T06:48:30.827Z,99207.38
2023-10-12T06:53:38.356Z,99219.28
2023-10-12T06:58:40.663Z,99215.28
2023-10-12T07:03:42.666Z,99224.16
2023-10-12T07:08:47.461Z,99223.81
2023-10-12T07:13:51.056Z,99241.19
2023-10-12T07:19:08.660Z,99239.19
2023-10-12T07:24:17.632Z,99235.88
2023-10-12T07:29:21.225Z,99250.13
2023-10-12T07:34:25.407Z,99243.41
2023-10-12T07:39:39.981Z,99252.63
2023-10-12T07:44:55.367Z,99256.47
2023-10-12T07:49:58.828Z,99262.09
2023-10-12T07:55:00.930Z,99265.25
2023-10-12T08:00:10.109Z,99268.28
2023-10-12T08:05:39.218Z,99259.94
2023-10-12T08:10:41.028Z,99258.25
2023-10-12T08:15:55.257Z,99248.88
2023-10-12T08:21:01.794Z,99244.81
2023-10-12T08:26:21.771Z,99251.03
2023-10-12T08:31:29.264Z,99254.47
2023-10-12T08:36:31.284Z,99250.53
2023-10-12T08:41:54.822Z,99256.69
2023-10-12T08:46:56.866Z,99256.28
2023-10-12T08:52:06.701Z,99242.94
2023-10-12T08:57:39.745Z,99256.25
2023-10-12T09:02:41.613Z,99252.09
2023-10-12T09:07:49.474Z,99243.66
2023-10-12T09:12:52.044Z,99241.03
2023-10-12T09:17:54.158Z,99241.41
2023-10-12T09:23:04.630Z,99243.97
2023-10-12T09:28:09.398Z,68747.22
2023-10-12T09:33:31.158Z,68747.22
2023-10-12T09:38:39.318Z,68747.22
2023-10-12T09:43:45.365Z,68747.22
2023-10-12T09:48:48.680Z,68747.22
2023-10-12T09:53:59.968Z,68747.22
2023-10-12T09:59:14.798Z,68747.22
2023-10-12T10:04:27.646Z,68747.22
2023-10-12T10:09:29.741Z,68747.22
2023-10-12T10:14:38.813Z,68747.22
2023-10-12T10:19:40.849Z,68747.22
2023-10-12T10:24:47.728Z,68747.22
2023-10-12T10:29:57.296Z,68747.22
2023-10-12T10:35:05.320Z,68747.22
2023-10-12T10:40:18.591Z,68747.22
2023-10-12T10:45:20.626Z,68747.22
2023-10-12T10:50:22.746Z,68747.22
2023-10-12T10:55:27.007Z,68747.22
2023-10-12T11:00:40.899Z,68747.22
2023-10-12T11:05:46.003Z,68747.22
2023-10-12T11:11:08.880Z,68747.22
2023-10-12T11:16:43.008Z,68747.22
2023-10-12T11:21:53.332Z,68747.22
2023-10-12T11:26:57.209Z,68747.22
2023-10-12T11:32:12.478Z,68747.22
2023-10-12T11:37:22.988Z,68747.22
2023-10-12T12:05:13.036Z,68747.22
2023-10-12T12:10:19.224Z,68747.22
2023-10-12T12:15:21.250Z,68747.22
2023-10-12T12:20:23.273Z,68747.22
2023-10-12T12:25:33.469Z,68747.22
2023-10-12T12:30:57.795Z,68747.22
2023-10-12T12:36:02.558Z,68747.22
2023-10-12T12:41:07.804Z,68747.22
2023-10-12T12:46:11.720Z,68747.22
2023-10-12T12:51:17.500Z,68747.22
2023-10-12T12:56:21.343Z,68747.22
2023-10-12T13:01:27.726Z,68747.22
2023-10-12T13:06:29.630Z,68747.22
2023-10-12T13:11:31.512Z,68747.22
2023-10-12T13:16:36.361Z,68747.22
2023-10-12T13:21:43.243Z,68747.22
2023-10-12T13:26:45.153Z,68747.22
2023-10-12T13:31:48.329Z,68747.22
2023-10-12T13:36:50.491Z,68747.22
